createdAt,value
2023-04-20T00:02:05.011Z,62.80
2023-04-20T00:04:33.378Z,62.88
2023-04-20T00:07:01.376Z,62.79
2023-04-20T00:09:29.696Z,63.10
2023-04-20T00:11:57.751Z,63.00
2023-04-20T00:14:26.007Z,62.86
2023-04-20T00:16:53.893Z,62.87
2023-04-20T00:19:22.453Z,62.88
2023-04-20T00:21:50.415Z,62.87
2023-04-20T00:24:18.494Z,62.79
2023-04-20T00:26:46.523Z,62.79
2023-04-20T00:29:16.072Z,62.86
2023-04-20T00:31:44.299Z,62.88
2023-04-20T00:34:16.864Z,62.82
2023-04-20T00:36:44.967Z,62.75
2023-04-20T00:39:12.949Z,62.85
2023-04-20T00:41:41.091Z,63.03
2023-04-20T00:44:11.857Z,63.08
2023-04-20T00:46:43.123Z,63.37
2023-04-20T00:49:11.279Z,63.58
2023-04-20T00:51:39.864Z,63.71
2023-04-20T00:54:07.755Z,63.79
2023-04-20T00:56:36.988Z,63.87
2023-04-20T00:59:08.161Z,63.77
2023-04-20T01:01:37.576Z,64.03
2023-04-20T01:04:07.988Z,64.12
2023-04-20T01:06:36.274Z,64.25
2023-04-20T01:09:04.213Z,64.35
2023-04-20T01:11:32.375Z,64.44
2023-04-20T01:14:00.945Z,64.46
2023-04-20T01:16:29.265Z,64.52
2023-04-20T01:18:57.415Z,64.66
2023-04-20T01:21:25.772Z,64.71
2023-04-20T01:23:53.732Z,64.61
2023-04-20T01:26:22.684Z,64.64
2023-04-20T01:28:52.559Z,64.70
2023-04-20T01:31:21.203Z,64.57
2023-04-20T01:33:49.757Z,64.62
2023-04-20T01:36:17.904Z,64.41
2023-04-20T01:38:46.312Z,64.31
2023-04-20T01:41:14.773Z,64.10
2023-04-20T01:43:42.800Z,64.02
2023-04-20T01:46:13.651Z,63.96
2023-04-20T01:48:41.674Z,64.13
2023-04-20T01:51:10.099Z,63.78
2023-04-20T01:53:38.115Z,63.91
2023-04-20T01:56:06.174Z,63.59
2023-04-20T01:58:34.057Z,63.46
2023-04-20T02:01:02.754Z,63.23
2023-04-20T02:03:31.201Z,63.31
2023-04-20T02:05:59.534Z,63.32
2023-04-20T02:08:30.449Z,63.16
2023-04-20T02:10:58.436Z,63.20
2023-04-20T02:13:27.181Z,63.26
2023-04-20T02:15:55.754Z,63.21
2023-04-20T02:18:24.645Z,63.27
2023-04-20T02:20:53.105Z,63.22
2023-04-20T02:23:22.458Z,63.03
2023-04-20T02:25:50.502Z,62.90
2023-04-20T02:28:19.082Z,62.80
2023-04-20T02:30:47.031Z,62.91
2023-04-20T02:33:15.212Z,62.74
2023-04-20T02:35:43.371Z,62.58
2023-04-20T02:38:12.167Z,62.09
2023-04-20T02:40:40.222Z,62.14
2023-04-20T02:43:08.555Z,62.19
2023-04-20T02:45:37.033Z,61.96
2023-04-20T02:48:05.890Z,61.76
2023-04-20T02:50:35.114Z,61.73
2023-04-20T02:53:32.055Z,61.16
2023-04-20T02:56:35.942Z,61.20
2023-04-20T02:59:07.871Z,61.24
2023-04-20T03:02:00.785Z,61.29
2023-04-20T03:04:31.124Z,61.18
2023-04-20T03:07:05.050Z,61.49
2023-04-20T03:09:36.349Z,61.77
2023-04-20T03:12:23.002Z,61.73
2023-04-20T03:15:19.997Z,62.19
2023-04-20T03:18:03.917Z,62.25
2023-04-20T03:20:32.349Z,62.59
2023-04-20T03:23:00.408Z,62.63
2023-04-20T03:25:29.705Z,62.79
2023-04-20T03:28:04.182Z,62.93
2023-04-20T03:30:32.529Z,63.10
2023-04-20T03:33:14.470Z,63.19
2023-04-20T03:35:43.323Z,63.11
2023-04-20T03:38:11.557Z,63.35
2023-04-20T03:40:39.528Z,63.37
2023-04-20T03:43:07.523Z,63.64
2023-04-20T03:45:36.304Z,63.64
2023-04-20T03:48:04.530Z,63.89
2023-04-20T03:50:32.908Z,63.90
2023-04-20T03:53:00.877Z,64.22
2023-04-20T03:55:29.420Z,64.55
2023-04-20T03:58:01.498Z,64.56
2023-04-20T04:00:35.069Z,64.94
2023-04-20T04:03:05.282Z,65.69
2023-04-20T04:05:33.752Z,66.01
2023-04-20T04:08:02.708Z,66.64
2023-04-20T04:10:31.261Z,67.09
2023-04-20T04:12:59.353Z,67.60
2023-04-20T04:15:27.758Z,68.15
2023-04-20T04:18:01.310Z,68.29
2023-04-20T04:20:29.850Z,69.21
2023-04-20T04:22:58.571Z,69.52
2023-04-20T04:25:42.436Z,69.59
2023-04-20T04:28:12.007Z,69.87
2023-04-20T04:30:47.639Z,70.13
2023-04-20T04:33:19.264Z,70.15
2023-04-20T04:35:48.675Z,70.62
2023-04-20T04:38:17.269Z,71.56
2023-04-20T04:40:47.001Z,72.21
2023-04-20T04:43:15.075Z,72.86
2023-04-20T04:45:50.032Z,73.53
2023-04-20T04:48:20.512Z,73.61
2023-04-20T04:50:49.535Z,74.16
2023-04-20T04:53:17.633Z,75.06
2023-04-20T04:55:46.633Z,75.82
2023-04-20T04:58:15.304Z,76.43
2023-04-20T05:00:43.747Z,76.94
2023-04-20T05:03:11.701Z,77.99
2023-04-20T05:05:40.038Z,78.67
2023-04-20T05:08:07.985Z,79.82
2023-04-20T05:10:37.900Z,81.08
2023-04-20T05:13:06.040Z,81.76
2023-04-20T05:15:34.284Z,82.57
2023-04-20T05:18:02.842Z,82.86
2023-04-20T05:20:30.943Z,83.48
2023-04-20T05:22:59.299Z,84.02
2023-04-20T05:25:27.412Z,85.12
2023-04-20T05:27:55.903Z,85.84
2023-04-20T05:30:24.136Z,86.94
2023-04-20T05:32:52.643Z,87.91
2023-04-20T05:35:21.809Z,88.89
2023-04-20T05:37:50.115Z,89.04
2023-04-20T05:40:18.278Z,90.07
2023-04-20T05:42:46.816Z,91.08
2023-04-20T05:45:15.497Z,91.53
2023-04-20T05:47:52.032Z,92.05
2023-04-20T05:50:20.177Z,92.14
2023-04-20T05:52:48.108Z,93.03
2023-04-20T05:55:18.437Z,93.19
2023-04-20T05:57:47.697Z,93.65
2023-04-20T06:00:16.418Z,94.10
2023-04-20T06:02:44.657Z,94.39
2023-04-20T06:05:13.041Z,94.31
2023-04-20T06:07:41.170Z,94.51
2023-04-20T06:10:09.527Z,94.40
2023-04-20T06:12:38.272Z,94.68
2023-04-20T06:15:08.559Z,94.67
2023-04-20T06:17:41.282Z,94.64
2023-04-20T06:20:10.097Z,94.75
2023-04-20T06:22:42.353Z,95.04
2023-04-20T06:25:10.797Z,95.26
2023-04-20T06:27:38.968Z,95.25
2023-04-20T06:30:07.389Z,94.57
2023-04-20T06:32:38.107Z,94.43
2023-04-20T06:35:07.045Z,94.25
2023-04-20T06:37:35.499Z,93.51
2023-04-20T06:40:09.142Z,93.31
2023-04-20T06:42:37.786Z,92.56
2023-04-20T06:45:06.562Z,91.57
2023-04-20T06:47:34.945Z,90.56
2023-04-20T06:50:07.330Z,90.11
2023-04-20T06:52:37.186Z,89.81
2023-04-20T06:55:05.533Z,90.13
2023-04-20T06:57:34.385Z,90.03
2023-04-20T07:00:02.321Z,89.68
2023-04-20T07:02:31.186Z,88.72
2023-04-20T07:05:02.876Z,87.60
2023-04-20T07:07:31.101Z,86.38
2023-04-20T07:10:00.232Z,86.09
2023-04-20T07:12:28.458Z,84.86
2023-04-20T07:14:56.841Z,84.47
2023-04-20T07:17:27.654Z,83.61
2023-04-20T07:19:56.447Z,83.35
2023-04-20T07:22:24.639Z,82.99
2023-04-20T07:24:52.592Z,82.72
2023-04-20T07:27:20.687Z,81.12
2023-04-20T07:29:50.069Z,80.42
2023-04-20T07:32:18.131Z,80.11
2023-04-20T07:34:46.237Z,80.15
2023-04-20T07:37:14.095Z,79.65
2023-04-20T07:39:42.092Z,79.84
2023-04-20T07:42:10.497Z,80.58
2023-04-20T07:44:38.846Z,81.08
2023-04-20T07:47:09.528Z,81.48
2023-04-20T07:49:38.588Z,82.55
2023-04-20T07:52:16.330Z,83.28
2023-04-20T07:54:45.774Z,84.72
2023-04-20T07:57:15.360Z,84.95
2023-04-20T07:59:45.544Z,84.97
2023-04-20T08:02:13.878Z,86.21
2023-04-20T08:04:42.517Z,86.74
2023-04-20T08:07:11.092Z,87.92
2023-04-20T08:09:39.035Z,88.21
2023-04-20T08:12:08.051Z,89.57
2023-04-20T08:14:38.408Z,90.83
2023-04-20T08:17:06.540Z,92.47
2023-04-20T08:19:34.738Z,93.38
2023-04-20T08:22:03.449Z,94.38
2023-04-20T08:24:32.094Z,95.10
2023-04-20T08:27:01.144Z,95.30
2023-04-20T08:29:29.359Z,96.39
2023-04-20T08:31:57.453Z,97.00
2023-04-20T08:34:25.702Z,98.03
2023-04-20T08:36:53.712Z,98.20
2023-04-20T08:39:24.296Z,98.52
2023-04-20T08:41:55.703Z,98.07
2023-04-20T08:44:24.288Z,98.54
2023-04-20T08:46:52.270Z,98.95
2023-04-20T08:49:21.194Z,98.32
2023-04-20T08:51:49.382Z,98.30
2023-04-20T08:54:17.972Z,98.75
2023-04-20T08:56:46.765Z,99.36
2023-04-20T08:59:15.422Z,100.00
2023-04-20T09:01:43.782Z,100.00
2023-04-20T09:04:19.158Z,100.00
2023-04-20T09:06:50.254Z,100.00
2023-04-20T09:09:18.824Z,99.80
2023-04-20T09:11:46.877Z,99.37
2023-04-20T09:14:16.772Z,99.43
2023-04-20T09:16:50.216Z,99.46
2023-04-20T09:19:25.148Z,99.04
2023-04-20T09:21:54.031Z,99.06
2023-04-20T09:24:22.767Z,98.05
2023-04-20T09:26:51.161Z,98.81
2023-04-20T09:29:20.265Z,98.12
2023-04-20T09:31:48.551Z,97.73
2023-04-20T09:34:16.862Z,97.64
2023-04-20T09:36:46.368Z,97.07
2023-04-20T09:39:16.068Z,96.39
2023-04-20T09:41:45.050Z,94.67
2023-04-20T09:44:13.079Z,94.10
2023-04-20T09:46:41.584Z,92.67
2023-04-20T09:49:11.296Z,90.97
2023-04-20T09:51:41.835Z,88.74
2023-04-20T09:54:09.967Z,87.34
2023-04-20T09:56:38.296Z,87.01
2023-04-20T09:59:07.249Z,85.77
2023-04-20T10:01:36.605Z,85.94
2023-04-20T10:04:07.729Z,85.18
2023-04-20T10:06:35.966Z,85.41
2023-04-20T10:09:04.695Z,86.01
2023-04-20T10:11:49.130Z,86.82
2023-04-20T10:14:21.077Z,86.39
2023-04-20T10:16:59.517Z,85.65
2023-04-20T10:19:37.090Z,85.79
2023-04-20T10:22:05.758Z,85.73
2023-04-20T10:24:37.108Z,86.78
2023-04-20T10:27:16.327Z,87.94
2023-04-20T10:29:44.287Z,88.71
2023-04-20T10:32:25.393Z,89.62
2023-04-20T10:35:02.590Z,89.56
2023-04-20T10:37:32.430Z,87.80
2023-04-20T10:40:01.050Z,87.25
2023-04-20T10:42:32.024Z,87.71
2023-04-20T10:45:00.414Z,87.35
2023-04-20T10:47:29.611Z,87.14
2023-04-20T10:50:26.847Z,86.95
2023-04-20T10:52:54.738Z,86.87
2023-04-20T10:55:25.358Z,86.12
2023-04-20T10:57:53.678Z,85.55
2023-04-20T11:00:22.761Z,85.33
2023-04-20T11:02:51.724Z,85.42
2023-04-20T11:05:21.759Z,85.00
2023-04-20T11:07:56.812Z,85.19
2023-04-20T11:10:40.152Z,85.58
2023-04-20T11:13:18.902Z,86.00
2023-04-20T11:15:47.091Z,84.59
2023-04-20T11:18:15.865Z,84.20
2023-04-20T11:20:53.815Z,82.41
2023-04-20T11:23:22.549Z,80.61
2023-04-20T11:25:57.619Z,80.64
2023-04-20T11:28:30.974Z,78.74
2023-04-20T11:31:00.283Z,77.53
2023-04-20T11:33:29.110Z,77.41
2023-04-20T11:35:57.978Z,77.52
2023-04-20T11:38:29.489Z,76.78
2023-04-20T11:40:57.771Z,76.94
2023-04-20T11:43:26.176Z,76.67
2023-04-20T11:45:54.160Z,76.68
2023-04-20T11:48:22.886Z,76.91
2023-04-20T11:50:51.009Z,76.64
2023-04-20T11:53:18.941Z,76.45
2023-04-20T11:55:46.866Z,76.50
2023-04-20T11:58:15.234Z,77.03
2023-04-20T12:00:43.410Z,76.41
2023-04-20T12:03:11.858Z,76.28
2023-04-20T12:05:40.337Z,75.50
2023-04-20T12:08:10.032Z,75.58
2023-04-20T12:10:39.988Z,75.57
2023-04-20T12:13:08.093Z,74.25
2023-04-20T12:15:36.782Z,73.69
2023-04-20T12:18:04.846Z,73.84
2023-04-20T12:20:33.516Z,74.27
2023-04-20T12:23:02.571Z,74.29
2023-04-20T12:25:30.747Z,73.87
2023-04-20T12:27:58.743Z,72.80
2023-04-20T12:30:29.677Z,72.57
2023-04-20T12:32:57.788Z,72.59
2023-04-20T12:35:25.808Z,72.36
2023-04-20T12:37:53.828Z,72.54
2023-04-20T12:40:22.102Z,72.37
2023-04-20T12:42:51.716Z,72.44
2023-04-20T12:45:19.624Z,72.50
2023-04-20T12:47:47.795Z,72.66
2023-04-20T12:50:15.774Z,72.39
2023-04-20T12:52:46.814Z,71.94
2023-04-20T12:55:17.378Z,71.47
2023-04-20T12:57:46.469Z,70.87
2023-04-20T13:00:16.170Z,71.50
2023-04-20T13:02:44.828Z,70.83
2023-04-20T13:05:12.828Z,70.87
2023-04-20T13:07:40.900Z,71.33
2023-04-20T13:10:09.182Z,71.67
2023-04-20T13:12:37.528Z,71.41
2023-04-20T13:15:09.272Z,70.85
2023-04-20T13:17:37.592Z,66.97
2023-04-20T13:20:08.827Z,65.87
2023-04-20T13:22:47.063Z,63.49
2023-04-20T13:25:22.646Z,63.78
2023-04-20T13:27:50.844Z,63.23
2023-04-20T13:30:18.716Z,61.63
2023-04-20T13:32:46.943Z,61.55
2023-04-20T13:35:16.626Z,62.69
2023-04-20T13:37:45.155Z,62.29
2023-04-20T13:40:13.291Z,62.82
2023-04-20T13:42:41.310Z,63.19
2023-04-20T13:45:10.508Z,64.54
2023-04-20T13:47:38.972Z,65.75
2023-04-20T13:50:07.425Z,66.50
2023-04-20T13:52:35.490Z,67.46
2023-04-20T13:55:04.042Z,68.09
2023-04-20T13:57:32.149Z,67.11
2023-04-20T14:00:01.221Z,65.87
2023-04-20T14:02:35.318Z,66.68
2023-04-20T14:05:04.366Z,66.41
2023-04-20T14:07:32.732Z,65.70
2023-04-20T14:10:01.060Z,64.11
2023-04-20T14:12:29.285Z,63.29
2023-04-20T14:14:57.457Z,63.10
2023-04-20T14:17:25.713Z,62.81
2023-04-20T14:19:53.639Z,63.00
2023-04-20T14:22:21.724Z,62.77
2023-04-20T14:24:50.125Z,62.47
2023-04-20T14:27:18.306Z,62.15
2023-04-20T14:29:46.226Z,62.08
2023-04-20T14:32:14.436Z,61.35
2023-04-20T14:34:42.461Z,61.76
2023-04-20T14:37:10.880Z,61.82
2023-04-20T14:39:39.467Z,62.05
2023-04-20T14:42:10.205Z,62.05
2023-04-20T14:44:40.347Z,62.50
2023-04-20T14:47:08.288Z,62.59
2023-04-20T14:49:36.768Z,62.95
2023-04-20T14:52:05.124Z,63.09
2023-04-20T14:54:33.650Z,63.75
2023-04-20T14:57:01.584Z,63.97
2023-04-20T14:59:30.773Z,64.43
2023-04-20T15:02:03.006Z,64.67
2023-04-20T15:04:33.182Z,64.55
2023-04-20T15:07:01.649Z,64.60
2023-04-20T15:09:30.423Z,63.96
2023-04-20T15:11:59.239Z,64.08
2023-04-20T15:14:27.546Z,64.40
2023-04-20T15:16:56.195Z,64.16
2023-04-20T15:19:25.193Z,64.44
2023-04-20T15:21:53.217Z,64.50
2023-04-20T15:24:21.231Z,64.65
2023-04-20T15:26:49.242Z,64.68
2023-04-20T15:29:17.199Z,65.16
2023-04-20T15:31:46.955Z,65.59
2023-04-20T15:34:15.200Z,65.06
2023-04-20T15:36:43.733Z,64.17
2023-04-20T15:39:12.536Z,63.47
2023-04-20T15:41:40.528Z,62.46
2023-04-20T15:44:08.544Z,62.64
2023-04-20T15:46:37.739Z,62.72
2023-04-20T15:49:05.848Z,62.95
2023-04-20T15:51:35.422Z,63.43
2023-04-20T15:54:03.320Z,64.04
2023-04-20T15:56:31.450Z,64.71
2023-04-20T15:58:59.477Z,65.49
2023-04-20T16:01:27.544Z,64.62
2023-04-20T16:03:56.011Z,64.19
2023-04-20T16:06:24.373Z,64.72
2023-04-20T16:08:54.122Z,65.18
2023-04-20T16:11:22.582Z,64.55
2023-04-20T16:13:50.805Z,64.16
2023-04-20T16:16:19.349Z,64.20
2023-04-20T16:18:48.344Z,64.57
2023-04-20T16:21:16.449Z,64.65
2023-04-20T16:23:44.374Z,64.94
2023-04-20T16:26:12.231Z,64.81
2023-04-20T16:28:40.147Z,64.71
2023-04-20T16:31:08.124Z,64.62
2023-04-20T16:33:36.895Z,64.64
2023-04-20T16:36:05.054Z,64.54
2023-04-20T16:38:33.404Z,64.63
2023-04-20T16:41:01.464Z,64.52
2023-04-20T16:43:29.644Z,65.16
2023-04-20T16:45:57.502Z,64.97
2023-04-20T16:48:25.615Z,64.99
2023-04-20T16:50:53.635Z,65.10
2023-04-20T16:53:21.663Z,65.35
2023-04-20T16:55:50.067Z,65.11
2023-04-20T16:58:18.946Z,65.16
2023-04-20T17:00:47.446Z,65.25
2023-04-20T17:03:15.819Z,65.07
2023-04-20T17:05:46.682Z,65.25
2023-04-20T17:08:15.201Z,65.10
2023-04-20T17:10:43.259Z,64.86
2023-04-20T17:13:11.500Z,64.82
2023-04-20T17:15:42.761Z,65.18
2023-04-20T17:18:10.850Z,65.20
2023-04-20T17:20:38.910Z,65.32
2023-04-20T17:23:06.927Z,65.63
2023-04-20T17:25:35.530Z,65.85
2023-04-20T17:28:03.791Z,65.14
2023-04-20T17:30:32.830Z,65.07
2023-04-20T17:33:00.900Z,65.22
2023-04-20T17:35:29.016Z,65.69
2023-04-20T17:37:56.939Z,66.19
2023-04-20T17:40:25.183Z,67.63
2023-04-20T17:42:53.082Z,67.71
2023-04-20T17:45:21.900Z,67.78
2023-04-20T17:47:49.995Z,67.34
2023-04-20T17:50:18.016Z,67.77
2023-04-20T17:52:46.437Z,67.74
2023-04-20T17:55:14.417Z,67.78
2023-04-20T17:57:43.705Z,67.55
2023-04-20T18:00:11.986Z,66.79
2023-04-20T18:02:41.123Z,66.95
2023-04-20T18:05:10.040Z,67.13
2023-04-20T18:07:38.572Z,66.54
2023-04-20T18:10:06.827Z,66.27
2023-04-20T18:12:35.372Z,66.30
2023-04-20T18:15:04.323Z,66.24
2023-04-20T18:17:33.840Z,66.24
2023-04-20T18:20:01.885Z,66.04
2023-04-20T18:22:30.067Z,65.82
2023-04-20T18:24:58.474Z,65.49
2023-04-20T18:27:26.827Z,65.14
2023-04-20T18:29:59.658Z,64.92
2023-04-20T18:32:27.967Z,64.67
2023-04-20T18:34:55.939Z,64.33
2023-04-20T18:37:24.411Z,64.35
2023-04-20T18:39:52.345Z,64.80
2023-04-20T18:42:20.503Z,65.70
2023-04-20T18:44:53.044Z,66.24
2023-04-20T18:47:23.046Z,67.00
2023-04-20T18:49:53.480Z,67.71
2023-04-20T18:52:23.793Z,67.78
2023-04-20T18:54:53.236Z,67.58
2023-04-20T18:57:26.134Z,67.62
2023-04-20T18:59:58.772Z,67.59
2023-04-20T19:02:30.386Z,67.61
2023-04-20T19:04:59.065Z,67.85
2023-04-20T19:07:26.973Z,68.01
2023-04-20T19:09:54.926Z,68.11
2023-04-20T19:12:23.378Z,68.37
2023-04-20T19:14:51.448Z,68.55
2023-04-20T19:17:19.606Z,68.59
2023-04-20T19:19:48.273Z,68.96
2023-04-20T19:22:16.364Z,69.25
2023-04-20T19:24:44.450Z,69.47
2023-04-20T19:27:12.958Z,69.54
2023-04-20T19:29:41.052Z,69.91
2023-04-20T19:32:09.124Z,69.95
2023-04-20T19:34:37.657Z,70.03
2023-04-20T19:37:05.738Z,70.28
2023-04-20T19:39:35.238Z,70.43
2023-04-20T19:42:03.736Z,70.67
2023-04-20T19:44:33.840Z,70.89
2023-04-20T19:47:02.002Z,71.46
2023-04-20T19:49:29.939Z,71.82
2023-04-20T19:51:57.987Z,72.25
2023-04-20T19:54:25.929Z,72.30
2023-04-20T19:56:53.853Z,72.72
2023-04-20T19:59:23.348Z,73.17
2023-04-20T20:01:51.442Z,73.50
2023-04-20T20:04:20.598Z,73.87
2023-04-20T20:06:50.914Z,74.27
2023-04-20T20:09:21.573Z,74.77
2023-04-20T20:11:51.395Z,75.00
2023-04-20T20:14:19.286Z,75.26
2023-04-20T20:16:58.454Z,75.47
2023-04-20T20:19:27.341Z,75.47
2023-04-20T20:21:55.604Z,75.73
2023-04-20T20:24:25.354Z,75.89
2023-04-20T20:26:53.358Z,76.08
2023-04-20T20:29:22.981Z,76.34
2023-04-20T20:31:51.276Z,76.30
2023-04-20T20:34:19.482Z,76.43
2023-04-20T20:36:48.566Z,76.63
2023-04-20T20:39:16.750Z,76.88
2023-04-20T20:41:46.655Z,77.34
2023-04-20T20:44:14.615Z,77.44
2023-04-20T20:50:23.822Z,77.73
2023-04-20T20:52:51.780Z,77.93
2023-04-20T20:55:19.919Z,78.11
2023-04-20T20:57:47.783Z,78.02
2023-04-20T21:00:16.368Z,78.11
2023-04-20T21:02:44.795Z,78.17
2023-04-20T21:05:13.131Z,77.98
2023-04-20T21:07:41.095Z,78.06
2023-04-20T21:10:09.872Z,78.17
2023-04-20T21:12:38.035Z,78.29
2023-04-20T21:15:06.459Z,78.39
2023-04-20T21:17:34.773Z,78.27
2023-04-20T21:20:05.706Z,78.51
2023-04-20T21:22:34.023Z,78.28
2023-04-20T21:25:02.165Z,78.19
2023-04-20T21:27:30.272Z,77.82
2023-04-20T21:29:58.295Z,78.19
2023-04-20T21:32:26.674Z,77.91
2023-04-20T21:34:55.127Z,77.66
2023-04-20T21:37:23.463Z,77.87
2023-04-20T21:39:51.957Z,78.14
2023-04-20T21:42:19.960Z,78.23
2023-04-20T21:44:47.999Z,78.85
2023-04-20T21:47:16.158Z,79.28
2023-04-20T21:49:44.055Z,79.29
2023-04-20T21:52:12.334Z,79.38
2023-04-20T21:54:42.127Z,79.62
2023-04-20T21:57:10.287Z,79.79
2023-04-20T21:59:38.341Z,79.78
2023-04-20T22:02:06.383Z,79.59
2023-04-20T22:04:35.180Z,79.21
2023-04-20T22:07:03.999Z,79.54
2023-04-20T22:09:32.162Z,79.26
2023-04-20T22:12:02.145Z,79.14
2023-04-20T22:14:30.891Z,79.11
2023-04-20T22:16:59.682Z,78.87
2023-04-20T22:19:27.828Z,78.84
2023-04-20T22:21:56.190Z,78.82
2023-04-20T22:24:24.208Z,78.85
2023-04-20T22:26:52.102Z,78.68
2023-04-20T22:29:20.813Z,78.79
2023-04-20T22:31:49.084Z,78.55
2023-04-20T22:34:17.021Z,78.42
2023-04-20T22:36:45.107Z,78.13
2023-04-20T22:39:13.424Z,77.49
2023-04-20T22:41:41.647Z,77.34
2023-04-20T22:44:09.732Z,77.30
2023-04-20T22:46:37.886Z,77.89
2023-04-20T22:49:05.873Z,78.23
2023-04-20T22:51:34.413Z,78.36
2023-04-20T22:54:02.784Z,78.73
2023-04-20T22:56:32.085Z,79.09
2023-04-20T22:59:00.231Z,79.20
2023-04-20T23:01:29.339Z,79.51
2023-04-20T23:03:57.660Z,79.49
2023-04-20T23:06:30.269Z,79.44
2023-04-20T23:09:00.174Z,79.57
2023-04-20T23:11:33.743Z,79.57
2023-04-20T23:14:02.211Z,79.36
2023-04-20T23:16:30.366Z,79.44
2023-04-20T23:18:58.840Z,79.91
2023-04-20T23:21:27.872Z,80.21
2023-04-20T23:23:58.784Z,80.88
2023-04-20T23:26:26.914Z,81.23
2023-04-20T23:28:55.498Z,81.32
2023-04-20T23:31:26.499Z,81.61
2023-04-20T23:33:55.089Z,81.72
2023-04-20T23:36:23.232Z,81.97
2023-04-20T23:41:19.226Z,82.22
2023-04-20T23:43:47.122Z,82.26
2023-04-20T23:46:15.396Z,82.23
2023-04-20T23:48:45.090Z,81.92
2023-04-20T23:51:13.274Z,81.77
2023-04-20T23:53:41.309Z,81.48
2023-04-20T23:56:09.672Z,81.16
2023-04-20T23:58:38.320Z,80.96
